Time;durP1;ratioP1;P1;durP2;ratioP2;P2;SDS_P1;SDS_P2;PMS_P1;PMS_P2;Temp;Humidity;BMP_temperature;BMP_pressure;BME280_temperature;BME280_humidity;BME280_pressure;Samples;Min_cycle;Max_cycle;Signal;HPM_P1;HPM_P2
2023/10/08 00:02:05;;;;;;;13.30;6.93;;;15.80;99.90;;;;;;5071173;28;20293;-78
2023/10/08 00:04:37;;;;;;;15.70;7.15;;;15.80;99.90;;;;;;5071483;28;20086;-78
2023/10/08 00:07:07;;;;;;;15.07;6.90;;;15.80;99.90;;;;;;5070629;28;20637;-78
2023/10/08 00:09:36;;;;;;;15.85;7.80;;;15.80;99.90;;;;;;5071465;28;20486;-78
2023/10/08 00:12:03;;;;;;;11.85;7.32;;;15.70;99.90;;;;;;5070664;28;20348;-78
2023/10/08 00:14:29;;;;;;;15.70;8.68;;;15.70;99.90;;;;;;5070806;28;20432;-79
2023/10/08 00:16:55;;;;;;;19.02;7.65;;;15.70;99.90;;;;;;5070322;28;20107;-78
2023/10/08 00:19:21;;;;;;;18.52;7.20;;;15.70;99.90;;;;;;5053070;28;20085;-78
2023/10/08 00:21:48;;;;;;;13.55;7.68;;;15.70;99.90;;;;;;5070468;28;20178;-78
2023/10/08 00:24:14;;;;;;;13.85;7.72;;;15.70;99.90;;;;;;5071173;28;20044;-78
2023/10/08 00:26:40;;;;;;;17.00;7.85;;;15.70;99.90;;;;;;5070813;28;20086;-78
2023/10/08 00:29:17;;;;;;;14.50;7.65;;;15.60;99.90;;;;;;5070300;28;20028;-79
2023/10/08 00:31:45;;;;;;;15.18;7.95;;;15.60;99.90;;;;;;5071001;28;20050;-80
2023/10/08 00:34:14;;;;;;;17.92;8.77;;;15.50;99.90;;;;;;5070218;28;20033;-79
2023/10/08 00:36:46;;;;;;;16.00;8.32;;;15.60;99.90;;;;;;5070748;28;20127;-79
2023/10/08 00:39:16;;;;;;;13.35;7.60;;;15.60;99.90;;;;;;5070622;28;20035;-78
2023/10/08 00:41:45;;;;;;;19.17;8.38;;;15.50;99.90;;;;;;5070735;28;20135;-79
2023/10/08 00:44:29;;;;;;;12.30;7.85;;;15.50;99.90;;;;;;5070334;28;20020;-79
2023/10/08 00:46:56;;;;;;;15.38;9.02;;;15.50;99.90;;;;;;5070100;28;20051;-79
2023/10/08 00:49:35;;;;;;;16.20;8.57;;;15.60;99.90;;;;;;5070727;28;20103;-78
2023/10/08 00:54:40;;;;;;;15.23;9.20;;;15.50;99.90;;;;;;5070604;28;20051;-78
2023/10/08 00:57:11;;;;;;;17.60;8.35;;;15.50;99.90;;;;;;5053527;28;20043;-79
2023/10/08 00:59:44;;;;;;;17.05;8.25;;;15.50;99.90;;;;;;5070303;28;20116;-79
2023/10/08 01:02:14;;;;;;;18.08;8.43;;;15.50;99.90;;;;;;5052291;28;20035;-79
2023/10/08 01:04:43;;;;;;;17.33;8.65;;;15.40;99.90;;;;;;5070804;28;20119;-79
2023/10/08 01:07:13;;;;;;;18.10;9.02;;;15.40;99.90;;;;;;5069991;28;20032;-79
2023/10/08 01:09:42;;;;;;;14.05;7.82;;;15.30;99.90;;;;;;5070637;28;20094;-79
2023/10/08 01:12:15;;;;;;;14.23;8.75;;;15.30;99.90;;;;;;5069734;28;20490;-79
2023/10/08 01:14:42;;;;;;;;;;;15.30;99.90;;;;;;5070573;28;20079;-79
2023/10/08 01:17:15;;;;;;;12.98;7.78;;;15.20;99.90;;;;;;5069716;28;20064;-79
2023/10/08 01:19:50;;;;;;;16.65;9.10;;;15.10;99.90;;;;;;5070429;28;20417;-79
2023/10/08 01:22:21;;;;;;;17.58;8.38;;;15.10;99.90;;;;;;5070233;28;20060;-79
2023/10/08 01:24:51;;;;;;;15.88;9.20;;;15.10;99.90;;;;;;5070334;28;20426;-79
2023/10/08 01:27:24;;;;;;;18.90;9.63;;;15.10;99.90;;;;;;5069961;28;20463;-79
2023/10/08 01:29:51;;;;;;;16.98;9.52;;;15.10;99.90;;;;;;5069366;28;20134;-79
2023/10/08 01:32:22;;;;;;;19.63;10.07;;;15.10;99.90;;;;;;5070288;28;20109;-79
2023/10/08 01:34:49;;;;;;;16.42;8.75;;;15.10;99.90;;;;;;5069890;28;20033;-79
2023/10/08 01:37:18;;;;;;;18.00;9.43;;;15.10;99.90;;;;;;5069976;28;20025;-79
2023/10/08 01:39:49;;;;;;;17.02;9.20;;;15.00;99.90;;;;;;5069757;28;20456;-78
2023/10/08 01:42:17;;;;;;;16.10;8.80;;;15.00;99.90;;;;;;5069788;28;20021;-80
2023/10/08 01:44:48;;;;;;;17.50;8.75;;;14.90;99.90;;;;;;5069901;28;20043;-79
2023/10/08 01:47:16;;;;;;;15.68;8.75;;;14.90;99.90;;;;;;5069316;28;20024;-80
2023/10/08 01:49:44;;;;;;;20.27;10.10;;;15.00;99.90;;;;;;5069685;28;20020;-80
2023/10/08 01:52:29;;;;;;;17.17;9.20;;;15.00;99.90;;;;;;5070688;28;20238;-78
2023/10/08 01:54:55;;;;;;;21.60;9.63;;;15.00;99.90;;;;;;5073587;28;20131;-79
2023/10/08 01:57:22;;;;;;;20.30;9.45;;;15.00;99.90;;;;;;5055635;28;20040;-78
2023/10/08 01:59:48;;;;;;;15.48;8.35;;;14.90;99.90;;;;;;5073623;28;20028;-79
2023/10/08 02:02:15;;;;;;;14.35;9.05;;;14.90;99.90;;;;;;5073377;28;20029;-79
2023/10/08 02:04:41;;;;;;;17.77;9.77;;;14.90;99.90;;;;;;5055722;28;20460;-79
2023/10/08 02:07:13;;;;;;;20.10;10.07;;;14.90;99.90;;;;;;5054934;28;20362;-79
2023/10/08 02:09:40;;;;;;;17.60;9.20;;;14.80;99.90;;;;;;5073742;28;20031;-79
2023/10/08 02:12:06;;;;;;;19.30;9.18;;;14.80;99.90;;;;;;5072900;28;20028;-79
2023/10/08 02:14:35;;;;;;;15.15;8.50;;;14.80;99.90;;;;;;5073346;28;20034;-79
2023/10/08 02:17:05;;;;;;;15.57;9.10;;;14.90;99.90;;;;;;5073035;28;20037;-79
2023/10/08 02:19:32;;;;;;;15.75;9.23;;;14.90;99.90;;;;;;5040032;28;20346;-79
2023/10/08 02:21:58;;;;;;;20.63;10.07;;;14.90;99.90;;;;;;5073181;28;20070;-79
2023/10/08 02:24:25;;;;;;;18.98;9.65;;;14.80;99.90;;;;;;5074023;28;20238;-79
2023/10/08 02:26:57;;;;;;;17.48;8.90;;;14.80;99.90;;;;;;5073697;28;20120;-79
2023/10/08 02:29:27;;;;;;;17.97;9.00;;;14.70;99.90;;;;;;5073778;28;20461;-79
2023/10/08 02:31:53;;;;;;;16.75;8.52;;;14.70;99.90;;;;;;5072913;28;20494;-79
2023/10/08 02:34:20;;;;;;;20.70;9.70;;;14.70;99.90;;;;;;5073522;28;20021;-79
2023/10/08 02:36:49;;;;;;;15.25;9.25;;;14.60;99.90;;;;;;5073330;28;20167;-79
2023/10/08 02:39:21;;;;;;;20.83;9.00;;;14.60;99.90;;;;;;5072634;28;20368;-79
2023/10/08 02:41:48;;;;;;;15.70;8.65;;;14.60;99.90;;;;;;5073079;28;20025;-79
2023/10/08 02:44:15;;;;;;;18.88;8.43;;;14.60;99.90;;;;;;5072254;28;20571;-79
2023/10/08 02:46:42;;;;;;;16.77;8.70;;;14.60;99.90;;;;;;5073006;28;20036;-79
2023/10/08 02:49:12;;;;;;;17.00;8.70;;;14.60;99.90;;;;;;5072444;28;20382;-79
2023/10/08 02:51:44;;;;;;;15.05;8.73;;;14.60;99.90;;;;;;5073056;28;20051;-78
2023/10/08 02:54:17;;;;;;;17.92;9.13;;;14.60;99.90;;;;;;5053948;28;20224;-79
2023/10/08 02:56:52;;;;;;;15.90;8.60;;;14.50;99.90;;;;;;5073067;28;20127;-77
2023/10/08 02:59:21;;;;;;;16.33;9.43;;;14.50;99.90;;;;;;5072169;28;20111;-78
2023/10/08 03:01:49;;;;;;;16.95;9.82;;;14.50;99.90;;;;;;5073077;28;20115;-78
2023/10/08 03:04:18;;;;;;;16.35;8.85;;;14.50;99.90;;;;;;5070804;28;20025;-78
2023/10/08 03:06:50;;;;;;;19.85;9.95;;;14.50;99.90;;;;;;5072705;28;20057;-79
2023/10/08 03:09:24;;;;;;;17.02;9.23;;;14.40;99.90;;;;;;5072002;28;20123;-79
2023/10/08 03:11:52;;;;;;;18.05;8.68;;;14.40;99.90;;;;;;5072662;28;20052;-79
2023/10/08 03:14:22;;;;;;;19.50;10.25;;;14.40;99.90;;;;;;5071861;28;20074;-78
2023/10/08 03:17:03;;;;;;;14.93;9.68;;;14.30;99.90;;;;;;5072285;28;20029;-78
2023/10/08 03:19:30;;;;;;;17.00;10.52;;;14.30;99.90;;;;;;5072716;28;20477;-79
2023/10/08 03:21:55;;;;;;;17.80;10.10;;;14.30;99.90;;;;;;5072313;28;20333;-79
2023/10/08 03:24:41;;;;;;;17.00;9.65;;;14.20;99.90;;;;;;5053967;28;20024;-78
2023/10/08 03:27:12;;;;;;;15.15;8.93;;;14.20;99.90;;;;;;5071716;28;20032;-78
2023/10/08 03:29:41;;;;;;;18.55;9.85;;;14.10;99.90;;;;;;5072039;28;20079;-79
2023/10/08 03:32:18;;;;;;;15.75;8.50;;;14.10;99.90;;;;;;5071334;28;20028;-78
2023/10/08 03:34:48;;;;;;;19.60;10.20;;;14.00;99.90;;;;;;5072066;28;20024;-78
2023/10/08 03:37:20;;;;;;;15.88;9.65;;;14.00;99.90;;;;;;5071551;28;20040;-78
2023/10/08 03:40:00;;;;;;;14.07;8.57;;;13.90;99.90;;;;;;5071986;28;20021;-79
2023/10/08 03:42:29;;;;;;;17.08;10.27;;;14.00;99.90;;;;;;5072232;28;20028;-78
2023/10/08 03:44:56;;;;;;;19.63;10.38;;;13.90;99.90;;;;;;5071725;28;20127;-78
2023/10/08 03:47:26;;;;;;;20.08;10.02;;;13.90;99.90;;;;;;5071307;28;20036;-79
2023/10/08 03:49:53;;;;;;;16.63;9.70;;;13.80;99.90;;;;;;5071562;28;20060;-79
2023/10/08 03:52:23;;;;;;;23.33;10.23;;;13.80;99.90;;;;;;5071317;28;20107;-79
2023/10/08 03:54:59;;;;;;;19.67;9.57;;;13.70;99.90;;;;;;5071627;28;20021;-79
2023/10/08 03:57:40;;;;;;;14.02;9.27;;;13.70;99.90;;;;;;5071667;28;20067;-79
2023/10/08 04:00:16;;;;;;;18.27;9.75;;;13.70;99.90;;;;;;5071191;28;20109;-79
2023/10/08 04:02:46;;;;;;;17.15;9.63;;;13.70;99.90;;;;;;5071969;28;20028;-78
2023/10/08 04:05:21;;;;;;;17.27;10.07;;;13.70;99.90;;;;;;5071023;28;20028;-78
2023/10/08 04:13:00;;;;;;;21.27;10.77;;;13.60;99.90;;;;;;5070938;28;20094;-79
2023/10/08 04:15:27;;;;;;;24.63;10.20;;;13.60;99.90;;;;;;5071005;28;20029;-79
2023/10/08 04:17:52;;;;;;;18.40;9.50;;;13.60;99.90;;;;;;5071204;28;20471;-79
2023/10/08 04:20:38;;;;;;;16.40;9.43;;;13.60;99.90;;;;;;5070867;28;20021;-79
2023/10/08 04:23:20;;;;;;;17.23;9.30;;;13.60;99.90;;;;;;5070863;28;20021;-79
2023/10/08 04:25:50;;;;;;;18.83;9.60;;;13.50;99.90;;;;;;5071485;28;20447;-79
2023/10/08 04:28:20;;;;;;;19.67;8.80;;;13.50;99.90;;;;;;5070792;28;20058;-79
2023/10/08 04:30:50;;;;;;;16.38;8.93;;;13.40;99.90;;;;;;5071150;28;20109;-79
2023/10/08 04:33:19;;;;;;;14.60;8.95;;;13.40;99.90;;;;;;5070746;28;20033;-79
2023/10/08 04:35:48;;;;;;;16.90;8.90;;;13.40;99.90;;;;;;5070814;28;20153;-79
2023/10/08 04:38:17;;;;;;;19.80;10.45;;;13.40;99.90;;;;;;5070205;28;20032;-79
2023/10/08 04:40:48;;;;;;;18.08;9.80;;;13.40;99.90;;;;;;5070731;28;20032;-79
2023/10/08 04:43:25;;;;;;;21.05;10.30;;;13.40;99.90;;;;;;5070348;28;20020;-79
2023/10/08 04:45:51;;;;;;;24.25;10.85;;;13.40;99.90;;;;;;5070652;28;20032;-80
2023/10/08 04:48:20;;;;;;;21.27;10.55;;;13.40;99.90;;;;;;5070182;28;20040;-79
2023/10/08 04:50:58;;;;;;;18.98;11.38;;;13.40;99.90;;;;;;5070399;28;20048;-79
2023/10/08 04:53:54;;;;;;;18.48;10.63;;;13.40;99.90;;;;;;5053001;28;20024;-79
2023/10/08 04:56:17;;;;;;;27.73;12.18;;;13.40;99.90;;;;;;5069154;28;20068;-79
2023/10/08 04:58:47;;;;;;;20.85;11.68;;;13.40;99.90;;;;;;5036126;28;20467;-79
2023/10/08 05:01:17;;;;;;;22.63;12.10;;;13.40;99.90;;;;;;5069903;28;20490;-79
2023/10/08 05:17:09;;;;;;;19.85;11.38;;;13.40;99.90;;;;;;5070871;28;20124;-79
2023/10/08 05:38:21;;;;;;;22.70;12.48;;;13.50;99.90;;;;;;5073793;28;20040;-79
2023/10/08 05:43:48;;;;;;;22.00;11.38;;;13.60;99.90;;;;;;5073851;28;20031;-78
2023/10/08 05:52:10;;;;;;;18.05;11.23;;;13.60;99.90;;;;;;5074019;28;20063;-79
2023/10/08 05:57:35;;;;;;;25.95;11.43;;;13.60;99.90;;;;;;5073882;28;20064;-78
2023/10/08 06:03:09;;;;;;;17.73;10.55;;;13.60;99.90;;;;;;5073387;28;20055;-79
2023/10/08 06:05:26;;;;;;;;;;;13.60;99.90;;;;;;5073008;28;20039;-79
2023/10/08 06:13:29;;;;;;;17.67;10.73;;;13.50;99.90;;;;;;5073714;28;20349;-79
2023/10/08 06:18:27;;;;;;;16.58;10.10;;;13.50;99.90;;;;;;5073007;28;20467;-79
2023/10/08 06:20:59;;;;;;;21.60;10.63;;;13.50;99.90;;;;;;5073691;28;20028;-79
2023/10/08 06:23:28;;;;;;;20.70;11.15;;;13.40;99.90;;;;;;5072738;28;20797;-79
2023/10/08 06:25:58;;;;;;;17.75;10.20;;;13.40;99.90;;;;;;5073498;28;20032;-79
2023/10/08 06:28:27;;;;;;;17.90;10.90;;;13.40;99.90;;;;;;5073116;28;20094;-79
2023/10/08 06:30:55;;;;;;;18.35;10.60;;;13.40;99.90;;;;;;5073510;28;20028;-79
2023/10/08 06:33:30;;;;;;;21.50;10.80;;;13.30;99.90;;;;;;5072885;28;20067;-79
2023/10/08 06:36:02;;;;;;;16.80;10.10;;;13.30;99.90;;;;;;5073334;28;20076;-79
2023/10/08 06:38:35;;;;;;;15.02;8.70;;;13.30;99.90;;;;;;5072918;28;20164;-78
2023/10/08 06:44:02;;;;;;;20.05;10.00;;;13.30;99.90;;;;;;5073246;28;20081;-79
2023/10/08 06:46:32;;;;;;;19.85;10.15;;;13.40;99.90;;;;;;5073029;28;20035;-79
2023/10/08 06:49:11;;;;;;;19.52;10.18;;;13.40;99.90;;;;;;5073340;28;20028;-79
2023/10/08 06:51:43;;;;;;;14.27;9.48;;;13.30;99.90;;;;;;5073239;28;20044;-79
2023/10/08 06:54:10;;;;;;;14.32;9.35;;;13.30;99.90;;;;;;5072544;28;20370;-79
2023/10/08 06:56:36;;;;;;;18.05;9.90;;;13.30;99.90;;;;;;5073026;28;20132;-79
2023/10/08 06:59:03;;;;;;;16.42;9.63;;;13.30;99.90;;;;;;5073210;28;20084;-79
2023/10/08 07:01:51;;;;;;;19.10;9.73;;;13.30;99.90;;;;;;5072399;28;20029;-79
2023/10/08 07:04:15;;;;;;;19.65;9.93;;;13.30;99.90;;;;;;5071399;28;20036;-79
2023/10/08 07:06:46;;;;;;;16.73;9.40;;;13.30;99.90;;;;;;5073172;28;20033;-79
2023/10/08 07:11:57;;;;;;;15.63;9.48;;;13.30;99.90;;;;;;5072711;28;20080;-79
2023/10/08 07:14:27;;;;;;;12.90;9.00;;;13.40;99.90;;;;;;5054105;28;20039;-79
2023/10/08 07:16:58;;;;;;;14.15;9.27;;;13.50;99.90;;;;;;5072396;28;20173;-78
2023/10/08 07:19:32;;;;;;;13.77;8.90;;;13.60;99.90;;;;;;5072532;28;20029;-79
2023/10/08 07:22:05;;;;;;;14.80;9.32;;;13.60;99.90;;;;;;5072330;28;20032;-78
2023/10/08 07:24:34;;;;;;;14.48;9.27;;;13.70;99.90;;;;;;5071982;28;20024;-79
2023/10/08 07:27:05;;;;;;;16.42;9.65;;;13.80;99.90;;;;;;5072309;28;20428;-79
2023/10/08 07:29:32;;;;;;;13.70;8.93;;;13.90;99.90;;;;;;5054633;28;20056;-79
2023/10/08 07:32:09;;;;;;;15.30;9.60;;;13.90;99.90;;;;;;5072369;28;20056;-79
2023/10/08 07:34:41;;;;;;;15.40;8.93;;;13.90;99.90;;;;;;5072377;28;20435;-79
2023/10/08 07:37:07;;;;;;;16.20;10.20;;;14.00;99.90;;;;;;5072822;28;20029;-78
2023/10/08 07:42:00;;;;;;;16.17;9.70;;;14.10;99.90;;;;;;5072026;28;20024;-79
2023/10/08 07:44:30;;;;;;;13.80;8.40;;;14.20;99.90;;;;;;5071480;28;20032;-80
2023/10/08 07:46:56;;;;;;;17.73;9.60;;;14.20;99.90;;;;;;5071821;28;20028;-79
2023/10/08 07:49:23;;;;;;;16.85;9.75;;;14.20;99.90;;;;;;5070869;28;20131;-79
2023/10/08 07:51:52;;;;;;;16.55;9.13;;;14.20;99.90;;;;;;5071541;28;20556;-79
2023/10/08 07:54:27;;;;;;;17.40;9.43;;;14.20;99.90;;;;;;5071429;28;20055;-79
2023/10/08 07:57:38;;;;;;;13.90;8.88;;;14.30;99.90;;;;;;5075623;28;20463;-79
2023/10/08 08:00:01;;;;;;;15.50;8.95;;;14.30;99.90;;;;;;5054196;28;20079;-80
2023/10/08 08:02:27;;;;;;;13.02;7.70;;;14.30;99.90;;;;;;5071521;28;20108;-80
2023/10/08 08:04:53;;;;;;;16.50;8.07;;;14.40;99.90;;;;;;5053950;28;20028;-79
2023/10/08 08:07:20;;;;;;;18.77;8.50;;;14.40;99.90;;;;;;5071511;28;20111;-80
2023/10/08 08:09:51;;;;;;;16.15;8.30;;;14.40;99.90;;;;;;5071995;28;20055;-79
2023/10/08 08:12:25;;;;;;;9.82;7.22;;;14.40;99.90;;;;;;5071076;28;20020;-80
2023/10/08 08:14:51;;;;;;;11.88;6.63;;;14.50;99.90;;;;;;5071556;28;20036;-79
2023/10/08 08:17:24;;;;;;;13.93;7.25;;;14.50;99.90;;;;;;5070538;28;20036;-79
2023/10/08 08:19:51;;;;;;;10.25;6.70;;;14.60;99.90;;;;;;5070685;28;20104;-79
2023/10/08 08:22:22;;;;;;;12.07;6.43;;;14.70;99.90;;;;;;5051502;28;20079;-79
2023/10/08 08:27:38;;;;;;;10.48;5.60;;;14.80;99.90;;;;;;5069704;28;20043;-79
2023/10/08 08:30:26;;;;;;;12.45;6.32;;;14.90;99.90;;;;;;5070600;28;20030;-79
2023/10/08 08:32:51;;;;;;;7.18;5.03;;;14.90;99.90;;;;;;5070268;28;20075;-79
2023/10/08 08:35:17;;;;;;;14.18;5.90;;;15.10;99.90;;;;;;5070320;28;20086;-81
2023/10/08 08:37:46;;;;;;;10.25;5.63;;;15.20;99.90;;;;;;5071011;28;20028;-80
2023/10/08 08:40:17;;;;;;;7.40;4.82;;;15.30;99.90;;;;;;5071052;28;20450;-80
2023/10/08 08:42:46;;;;;;;8.85;4.85;;;15.50;99.90;;;;;;5052534;28;20063;-80
2023/10/08 08:45:16;;;;;;;6.93;3.83;;;15.70;99.90;;;;;;5070581;28;20060;-79
2023/10/08 08:47:41;;;;;;;7.05;4.03;;;16.00;99.90;;;;;;5070498;28;20028;-80
2023/10/08 08:50:08;;;;;;;6.05;4.18;;;16.30;99.90;;;;;;5070757;28;20201;-80
2023/10/08 08:52:41;;;;;;;6.65;3.35;;;16.50;99.90;;;;;;5070162;28;20086;-80
2023/10/08 08:55:14;;;;;;;7.07;3.33;;;16.70;99.90;;;;;;5070581;28;20048;-80
2023/10/08 08:57:43;;;;;;;5.78;3.38;;;17.00;99.90;;;;;;5070586;28;20063;-80
2023/10/08 09:00:12;;;;;;;6.22;3.30;;;17.10;99.90;;;;;;5070466;28;20048;-80
2023/10/08 09:02:38;;;;;;;6.13;3.00;;;17.20;99.90;;;;;;5070198;28;20036;-80
2023/10/08 09:05:23;;;;;;;4.40;2.78;;;17.40;99.90;;;;;;5070941;28;20036;-80
2023/10/08 09:07:57;;;;;;;6.30;2.90;;;17.50;99.90;;;;;;5070786;28;20555;-79
2023/10/08 09:10:28;;;;;;;4.75;2.97;;;17.50;99.90;;;;;;5070211;28;20028;-80
2023/10/08 09:12:58;;;;;;;6.38;2.60;;;17.60;99.90;;;;;;5069705;28;20036;-81
2023/10/08 09:15:25;;;;;;;6.05;3.40;;;17.60;99.90;;;;;;5070290;28;20446;-80
2023/10/08 09:17:53;;;;;;;5.00;2.90;;;17.60;99.90;;;;;;5070797;28;20085;-80
2023/10/08 09:20:20;;;;;;;4.85;3.10;;;17.60;99.90;;;;;;5052216;28;20059;-80
2023/10/08 09:22:47;;;;;;;5.50;3.03;;;17.50;99.90;;;;;;5070439;28;20487;-80
2023/10/08 09:25:24;;;;;;;5.32;2.92;;;17.50;99.90;;;;;;5071147;28;20441;-80
2023/10/08 09:27:55;;;;;;;6.38;3.78;;;17.50;99.90;;;;;;5070591;28;20554;-79
2023/10/08 09:30:21;;;;;;;8.50;3.40;;;17.50;99.90;;;;;;5070186;28;20021;-80
2023/10/08 09:32:49;;;;;;;6.63;3.28;;;17.40;99.90;;;;;;5070259;28;20047;-79
2023/10/08 09:35:16;;;;;;;5.65;2.70;;;17.50;99.90;;;;;;5052804;28;20028;-79
2023/10/08 09:37:44;;;;;;;5.35;2.83;;;17.50;99.90;;;;;;5070055;28;20024;-79
2023/10/08 09:40:11;;;;;;;5.43;3.47;;;17.50;99.90;;;;;;5035859;28;20025;-79
2023/10/08 09:42:42;;;;;;;5.90;3.03;;;17.50;99.90;;;;;;5069939;28;20340;-79
2023/10/08 09:45:08;;;;;;;5.43;2.78;;;17.60;99.90;;;;;;5070008;28;20020;-79
2023/10/08 09:47:38;;;;;;;6.57;3.05;;;17.60;99.90;;;;;;5069992;28;20039;-80
2023/10/08 09:50:08;;;;;;;6.13;2.83;;;17.70;99.90;;;;;;5070111;28;20045;-79
2023/10/08 09:52:39;;;;;;;4.88;3.13;;;17.80;99.90;;;;;;5069885;28;20020;-80
2023/10/08 09:55:12;;;;;;;6.10;3.50;;;17.90;99.90;;;;;;5070072;28;20101;-80
2023/10/08 09:57:38;;;;;;;7.35;3.50;;;17.90;99.90;;;;;;5069469;28;20104;-79
2023/10/08 10:00:14;;;;;;;6.65;2.85;;;18.00;99.90;;;;;;5070439;28;20054;-80
2023/10/08 10:02:42;;;;;;;5.13;2.88;;;18.10;99.90;;;;;;5070271;28;20044;-79
2023/10/08 10:05:11;;;;;;;4.85;2.75;;;18.20;99.90;;;;;;5070666;28;20448;-80
2023/10/08 10:07:41;;;;;;;5.22;2.80;;;18.20;99.90;;;;;;5070331;28;20082;-80
2023/10/08 10:10:31;;;;;;;6.47;3.15;;;18.30;99.90;;;;;;5070626;28;20059;-80
2023/10/08 10:12:59;;;;;;;7.47;3.40;;;18.50;99.90;;;;;;5053795;28;20028;-80
2023/10/08 10:15:25;;;;;;;5.55;3.30;;;18.70;99.90;;;;;;5074016;28;20040;-81
2023/10/08 10:17:51;;;;;;;5.60;3.47;;;18.90;99.90;;;;;;5056133;28;20035;-80
2023/10/08 10:20:20;;;;;;;6.18;3.70;;;19.10;99.90;;;;;;5073772;28;20378;-80
2023/10/08 10:22:46;;;;;;;5.35;3.05;;;19.30;99.90;;;;;;5073743;28;20025;-80
2023/10/08 10:25:16;;;;;;;7.45;3.50;;;19.40;99.90;;;;;;5073497;28;20051;-81
2023/10/08 10:27:54;;;;;;;8.32;3.75;;;19.60;99.90;;;;;;5073398;28;20119;-81
2023/10/08 10:30:20;;;;;;;6.45;3.53;;;19.70;99.90;;;;;;5073567;28;20029;-80
2023/10/08 10:32:46;;;;;;;5.95;3.65;;;19.70;99.90;;;;;;5073100;28;20078;-80
2023/10/08 10:35:18;;;;;;;5.28;2.83;;;19.80;99.90;;;;;;5073444;28;20135;-79
2023/10/08 10:37:51;;;;;;;5.28;3.30;;;19.80;99.90;;;;;;5073146;28;20043;-81
2023/10/08 10:40:28;;;;;;;5.60;3.63;;;19.80;99.90;;;;;;5073319;28;20085;-81
2023/10/08 10:42:58;;;;;;;5.30;3.10;;;19.90;99.90;;;;;;5073462;28;20052;-80
2023/10/08 10:45:36;;;;;;;5.93;3.35;;;19.90;99.90;;;;;;5072593;28;20119;-80
2023/10/08 10:50:48;;;;;;;7.57;3.25;;;20.00;99.90;;;;;;5073497;28;20052;-81
2023/10/08 10:53:18;;;;;;;6.43;3.40;;;20.10;99.90;;;;;;5073771;28;20016;-81
2023/10/08 10:55:59;;;;;;;5.20;3.58;;;20.10;99.90;;;;;;5073067;28;20347;-80
2023/10/08 10:58:28;;;;;;;5.85;3.50;;;20.20;99.90;;;;;;5073626;28;20029;-80
2023/10/08 11:00:58;;;;;;;6.32;3.53;;;20.30;99.90;;;;;;5055677;28;20032;-80
2023/10/08 11:03:24;;;;;;;5.45;3.08;;;20.30;99.90;;;;;;5073548;28;20120;-80
2023/10/08 11:05:54;;;;;;;5.43;3.60;;;20.40;99.90;;;;;;5072732;28;20131;-80
2023/10/08 11:08:23;;;;;;;9.10;4.90;;;20.40;99.90;;;;;;5073216;28;20163;-80
2023/10/08 11:10:51;;;;;;;8.00;4.47;;;20.40;99.90;;;;;;5073308;28;20467;-80
2023/10/08 11:13:21;;;;;;;7.53;4.45;;;20.40;99.90;;;;;;5055241;28;20032;-81
2023/10/08 11:15:51;;;;;;;9.63;4.95;;;20.40;99.90;;;;;;5072507;28;20434;-80
2023/10/08 11:18:23;;;;;;;9.13;5.30;;;20.30;99.90;;;;;;5072898;28;20054;-80
2023/10/08 11:21:04;;;;;;;10.65;5.97;;;20.20;99.90;;;;;;5072369;28;20024;-80
2023/10/08 11:23:37;;;;;;;11.05;6.50;;;20.10;99.90;;;;;;5071611;28;20043;-81
2023/10/08 11:26:05;;;;;;;14.13;6.45;;;19.90;99.90;;;;;;5054015;28;20124;-81
2023/10/08 11:28:41;;;;;;;12.95;5.82;;;19.90;99.90;;;;;;5072073;28;20060;-81
2023/10/08 11:31:10;;;;;;;10.73;5.45;;;19.80;99.90;;;;;;5073027;28;20079;-81
2023/10/08 11:33:54;;;;;;;10.75;5.53;;;19.80;99.90;;;;;;5054431;28;20086;-81
2023/10/08 11:36:31;;;;;;;10.98;5.32;;;19.90;99.90;;;;;;5072522;28;20039;-81
2023/10/08 11:39:21;;;;;;;12.63;5.15;;;20.00;99.90;;;;;;5072698;28;20043;-80
2023/10/08 11:42:22;;;;;;;11.63;4.95;;;20.00;99.90;;;;;;5071962;28;20021;-79
2023/10/08 11:44:52;;;;;;;9.30;4.00;;;20.00;99.90;;;;;;5071932;28;20024;-80
2023/10/08 11:47:21;;;;;;;8.52;3.90;;;20.10;99.90;;;;;;5071775;28;20093;-80
2023/10/08 11:49:50;;;;;;;5.30;3.60;;;20.10;99.90;;;;;;5071134;28;20024;-80
2023/10/08 11:52:16;;;;;;;6.25;3.83;;;20.20;99.90;;;;;;5072277;28;20043;-81
2023/10/08 11:54:48;;;;;;;8.48;3.88;;;20.30;99.90;;;;;;5071771;28;20108;-81
2023/10/08 11:57:13;;;;;;;5.82;3.58;;;20.40;99.90;;;;;;5072194;28;20153;-80
2023/10/08 11:59:41;;;;;;;8.40;3.50;;;20.50;99.90;;;;;;5071229;28;20207;-80
2023/10/08 12:02:07;;;;;;;6.55;3.42;;;20.50;99.90;;;;;;5071928;28;20035;-80
2023/10/08 12:04:33;;;;;;;6.30;3.70;;;20.60;99.90;;;;;;5071097;28;20115;-80
2023/10/08 12:07:02;;;;;;;6.68;3.38;;;20.60;99.90;;;;;;5072001;28;20108;-80
2023/10/08 12:09:28;;;;;;;6.13;3.58;;;20.60;99.90;;;;;;5071602;28;20096;-80
2023/10/08 12:11:56;;;;;;;7.07;3.85;;;20.60;99.90;;;;;;5071474;28;20139;-81
2023/10/08 12:14:26;;;;;;;5.55;3.80;;;20.50;99.90;;;;;;5053443;28;20039;-81
2023/10/08 12:16:52;;;;;;;5.95;3.47;;;20.50;99.90;;;;;;5071591;28;20066;-81
2023/10/08 12:19:18;;;;;;;6.88;3.83;;;20.50;99.90;;;;;;5071163;28;20037;-81
2023/10/08 12:21:47;;;;;;;6.55;3.72;;;20.50;99.90;;;;;;5070917;28;20127;-81
2023/10/08 12:24:13;;;;;;;6.25;4.10;;;20.60;99.90;;;;;;5071433;28;20025;-80
2023/10/08 12:26:45;;;;;;;6.47;3.80;;;20.60;99.90;;;;;;5053080;28;20039;-80
2023/10/08 12:29:14;;;;;;;6.85;3.65;;;20.50;99.90;;;;;;5071318;28;20074;-80
2023/10/08 12:31:41;;;;;;;5.82;3.55;;;20.50;99.90;;;;;;5070887;28;20347;-80
2023/10/08 12:34:11;;;;;;;8.35;3.92;;;20.50;99.90;;;;;;5071425;28;20115;-80
2023/10/08 12:36:37;;;;;;;6.22;4.00;;;20.40;99.90;;;;;;5070620;28;20135;-80
2023/10/08 12:39:09;;;;;;;7.78;4.38;;;20.30;99.90;;;;;;5071143;28;20040;-80
2023/10/08 12:41:38;;;;;;;8.02;4.25;;;20.40;99.90;;;;;;5070424;28;20116;-80
2023/10/08 12:44:07;;;;;;;6.65;4.25;;;20.30;99.90;;;;;;5070758;28;20475;-82
2023/10/08 12:46:34;;;;;;;7.75;4.60;;;20.30;99.90;;;;;;5069954;28;20032;-81
2023/10/08 12:49:01;;;;;;;7.25;4.30;;;20.30;99.90;;;;;;5071050;28;20025;-80
2023/10/08 12:51:31;;;;;;;7.90;4.10;;;20.40;99.90;;;;;;5038586;28;20499;-80
2023/10/08 12:54:06;;;;;;;9.85;4.40;;;20.50;99.90;;;;;;5051967;28;20032;-80
2023/10/08 12:56:35;;;;;;;7.68;4.35;;;20.60;99.90;;;;;;5050899;28;20372;-81
2023/10/08 12:59:06;;;;;;;9.70;4.28;;;20.70;99.90;;;;;;5050814;28;20029;-80
2023/10/08 13:01:36;;;;;;;8.00;4.45;;;20.80;99.90;;;;;;5050433;28;20036;-81
2023/10/08 13:04:07;;;;;;;7.72;4.38;;;20.80;99.90;;;;;;5049913;28;20033;-81
2023/10/08 13:06:39;;;;;;;8.02;4.45;;;20.90;99.90;;;;;;5049991;28;20031;-81
2023/10/08 13:09:12;;;;;;;6.53;4.60;;;20.90;99.90;;;;;;5050686;28;20017;-81
2023/10/08 13:11:39;;;;;;;8.57;4.40;;;21.00;99.90;;;;;;5050183;28;20440;-81
2023/10/08 13:14:05;;;;;;;7.38;4.20;;;21.00;99.90;;;;;;5032553;28;20028;-81
2023/10/08 13:16:31;;;;;;;6.45;3.92;;;21.00;99.90;;;;;;5049866;28;20037;-81
2023/10/08 13:18:58;;;;;;;8.55;4.40;;;21.10;99.90;;;;;;5049641;28;20032;-81
2023/10/08 13:21:28;;;;;;;6.43;4.28;;;21.10;99.90;;;;;;5048010;28;20028;-81
2023/10/08 13:23:58;;;;;;;6.22;3.97;;;21.20;99.90;;;;;;5049238;28;20021;-80
2023/10/08 13:26:28;;;;;;;8.73;4.40;;;21.20;99.90;;;;;;5049346;28;20025;-80
2023/10/08 13:28:54;;;;;;;8.02;4.25;;;21.30;99.90;;;;;;5050458;28;20021;-80
2023/10/08 13:31:21;;;;;;;10.77;4.10;;;21.30;99.90;;;;;;5049143;28;20071;-81
2023/10/08 13:33:48;;;;;;;8.38;4.20;;;21.40;99.90;;;;;;5050006;28;20087;-83
2023/10/08 13:36:15;;;;;;;5.95;4.35;;;21.40;99.90;;;;;;5049717;28;20035;-81
2023/10/08 13:38:41;;;;;;;11.18;4.22;;;21.50;99.90;;;;;;5048707;28;20770;-81
2023/10/08 13:41:14;;;;;;;6.57;4.30;;;21.50;99.90;;;;;;5049640;28;20427;-80
2023/10/08 13:43:47;;;;;;;8.30;4.22;;;21.40;99.90;;;;;;5049886;28;20076;-81
2023/10/08 13:46:17;;;;;;;;;;;21.50;99.90;;;;;;5051074;28;20036;-81
2023/10/08 13:48:48;;;;;;;10.60;4.45;;;21.50;99.90;;;;;;5052253;28;20390;-81
2023/10/08 13:51:25;;;;;;;6.60;4.32;;;21.50;99.90;;;;;;5068609;28;20059;-81
2023/10/08 13:54:00;;;;;;;7.55;4.28;;;21.60;99.90;;;;;;5073932;28;20034;-81
2023/10/08 13:56:30;;;;;;;5.97;4.32;;;21.60;99.90;;;;;;5075941;28;20495;-81
2023/10/08 13:59:19;;;;;;;5.47;4.30;;;21.70;99.90;;;;;;5075490;28;20103;-81
2023/10/08 14:01:51;;;;;;;6.72;4.60;;;21.80;99.90;;;;;;5074346;28;20041;-80
2023/10/08 14:04:19;;;;;;;7.63;4.90;;;21.70;99.90;;;;;;5076265;28;20060;-81
2023/10/08 14:06:52;;;;;;;7.75;4.07;;;21.80;99.90;;;;;;5075790;28;20029;-82
2023/10/08 14:09:30;;;;;;;8.23;4.72;;;21.80;99.90;;;;;;5075728;28;20025;-82
2023/10/08 14:11:56;;;;;;;7.65;4.30;;;21.80;99.90;;;;;;5074104;28;20025;-81
2023/10/08 14:14:24;;;;;;;10.85;4.93;;;21.80;99.90;;;;;;5073591;28;20025;-81